Time;durP1;ratioP1;P1;durP2;ratioP2;P2;SDS_P1;SDS_P2;PMS_P1;PMS_P2;Temp;Humidity;BMP_temperature;BMP_pressure;BME280_temperature;BME280_humidity;BME280_pressure;Samples;Min_cycle;Max_cycle;Signal;HPM_P1;HPM_P2
2022/01/16 06:16:38;;;;;;;6.65;5.55;;;-3.40;99.90;;;;;;5594039;22;20228;-71
2022/01/16 06:19:05;;;;;;;5.85;5.25;;;-3.40;99.90;;;;;;5074777;28;20267;-70
2022/01/16 06:21:32;;;;;;;6.05;5.13;;;-3.50;99.90;;;;;;5074502;28;20278;-70
2022/01/16 06:23:58;;;;;;;5.63;4.88;;;-3.50;99.90;;;;;;5074511;28;20204;-70
2022/01/16 06:26:25;;;;;;;4.90;4.50;;;-3.50;99.90;;;;;;5075348;28;20326;-70
2022/01/16 06:28:52;;;;;;;5.10;4.60;;;-3.60;99.90;;;;;;5074556;28;20362;-69
2022/01/16 06:31:19;;;;;;;5.57;5.00;;;-3.60;99.90;;;;;;5075079;28;20200;-71
2022/01/16 06:33:47;;;;;;;5.93;5.05;;;-3.70;99.90;;;;;;5074308;28;20286;-72
2022/01/16 06:36:14;;;;;;;6.70;5.10;;;-3.70;99.90;;;;;;5074095;28;20230;-72
2022/01/16 06:38:41;;;;;;;7.43;5.53;;;-3.70;99.90;;;;;;5074244;28;20223;-72
2022/01/16 06:41:08;;;;;;;7.65;5.93;;;-3.80;99.90;;;;;;5073204;28;20200;-72
2022/01/16 06:43:35;;;;;;;5.38;4.88;;;-3.80;99.90;;;;;;5073985;28;20196;-72
2022/01/16 06:46:02;;;;;;;8.10;5.60;;;-3.80;99.90;;;;;;5073882;28;20220;-72
2022/01/16 06:48:30;;;;;;;5.13;4.72;;;-3.90;99.90;;;;;;5074872;28;20242;-72
2022/01/16 06:50:58;;;;;;;6.50;5.22;;;-3.90;99.90;;;;;;5074069;28;20231;-70
2022/01/16 06:53:25;;;;;;;5.53;4.53;;;-3.90;99.90;;;;;;5073614;28;20307;-70
2022/01/16 06:55:52;;;;;;;5.97;4.38;;;-3.90;99.90;;;;;;5073295;28;20581;-70
2022/01/16 06:58:19;;;;;;;5.28;4.82;;;-3.90;99.90;;;;;;5073843;28;20298;-70
2022/01/16 07:00:46;;;;;;;6.15;4.78;;;-3.90;99.90;;;;;;5073638;28;20200;-71
2022/01/16 07:03:14;;;;;;;4.72;4.03;;;-4.00;99.90;;;;;;5073446;28;20678;-71
2022/01/16 07:05:41;;;;;;;4.95;4.45;;;-4.00;99.90;;;;;;5073720;28;20251;-71
2022/01/16 07:08:09;;;;;;;5.82;4.85;;;-4.00;99.90;;;;;;5073698;28;20279;-70
2022/01/16 07:10:36;;;;;;;6.35;5.35;;;-4.00;99.90;;;;;;5073762;28;20203;-70
2022/01/16 07:13:03;;;;;;;5.00;4.60;;;-4.00;99.90;;;;;;5073538;28;20311;-70
2022/01/16 07:15:30;;;;;;;6.90;5.00;;;-4.00;99.90;;;;;;5073658;28;20199;-70
2022/01/16 07:17:57;;;;;;;5.43;4.88;;;-4.00;99.90;;;;;;5073307;28;20208;-71
2022/01/16 07:20:24;;;;;;;6.32;5.03;;;-4.00;99.90;;;;;;5073369;28;20206;-71
2022/01/16 07:22:51;;;;;;;5.38;4.85;;;-4.00;99.90;;;;;;5073748;28;20198;-70
2022/01/16 07:25:19;;;;;;;6.25;4.80;;;-4.00;99.90;;;;;;5073605;28;20231;-71
2022/01/16 07:27:46;;;;;;;5.70;5.00;;;-4.00;99.90;;;;;;5073471;28;20242;-70
2022/01/16 07:30:13;;;;;;;5.63;5.10;;;-4.00;99.90;;;;;;5073857;28;20214;-70
2022/01/16 07:32:40;;;;;;;6.03;5.32;;;-4.00;99.90;;;;;;5073844;28;20247;-70
2022/01/16 07:35:08;;;;;;;7.90;6.10;;;-4.00;99.90;;;;;;5073383;28;20200;-71
2022/01/16 07:37:35;;;;;;;9.65;6.80;;;-3.90;99.90;;;;;;5073172;28;20589;-70
2022/01/16 07:40:01;;;;;;;11.77;7.95;;;-3.80;99.90;;;;;;5073267;28;20200;-70
2022/01/16 07:42:30;;;;;;;9.32;6.97;;;-3.70;99.90;;;;;;5073117;28;20200;-70
2022/01/16 07:44:57;;;;;;;9.05;6.57;;;-3.60;99.90;;;;;;5073278;28;20203;-70
2022/01/16 07:47:23;;;;;;;8.75;6.60;;;-3.50;99.90;;;;;;5073266;28;20251;-70
2022/01/16 07:49:50;;;;;;;8.25;6.88;;;-3.40;99.90;;;;;;5073325;28;20200;-70
2022/01/16 07:52:17;;;;;;;9.13;7.40;;;-3.30;99.90;;;;;;5075219;28;20247;-69
2022/01/16 07:54:44;;;;;;;10.43;6.50;;;-3.00;99.90;;;;;;5077188;28;20282;-71
2022/01/16 07:57:11;;;;;;;10.52;7.72;;;-2.40;99.90;;;;;;5076887;28;20220;-68
2022/01/16 07:59:39;;;;;;;7.95;6.68;;;-1.50;99.90;;;;;;5077496;28;20238;-68
2022/01/16 08:02:06;;;;;;;10.07;7.35;;;-0.40;99.90;;;;;;5076999;28;20633;-69
2022/01/16 08:04:33;;;;;;;11.40;7.95;;;0.50;99.90;;;;;;5077055;28;20681;-69
2022/01/16 08:07:00;;;;;;;9.18;7.75;;;1.60;99.90;;;;;;5077205;28;20227;-73
2022/01/16 08:09:27;;;;;;;10.98;8.32;;;2.70;99.90;;;;;;5076972;28;20716;-72
2022/01/16 08:11:54;;;;;;;11.68;8.27;;;3.50;99.90;;;;;;5076796;28;20289;-72
2022/01/16 08:14:21;;;;;;;15.40;10.13;;;3.90;99.90;;;;;;5076702;28;20292;-72
2022/01/16 08:16:49;;;;;;;14.68;10.18;;;4.10;99.90;;;;;;5076222;28;20766;-72
2022/01/16 08:19:16;;;;;;;17.55;10.48;;;4.30;99.90;;;;;;5077024;28;20614;-72
2022/01/16 08:21:43;;;;;;;19.05;11.38;;;4.20;99.90;;;;;;5076767;28;20210;-74
2022/01/16 08:24:09;;;;;;;16.10;10.88;;;4.40;99.90;;;;;;5077752;28;20287;-70
2022/01/16 08:26:36;;;;;;;16.77;10.60;;;4.50;99.90;;;;;;5077399;28;20702;-71
2022/01/16 08:29:03;;;;;;;14.18;10.38;;;4.40;99.90;;;;;;5078148;28;20204;-71
2022/01/16 08:31:30;;;;;;;17.35;10.50;;;4.10;99.90;;;;;;5078356;28;20621;-70
2022/01/16 08:33:58;;;;;;;14.02;9.52;;;3.60;99.90;;;;;;5077690;28;20773;-70
2022/01/16 08:36:25;;;;;;;13.43;8.77;;;3.10;99.90;;;;;;5076592;28;20275;-70
2022/01/16 08:38:53;;;;;;;14.00;9.30;;;2.80;99.90;;;;;;5076456;28;20740;-70
2022/01/16 08:41:20;;;;;;;12.05;9.20;;;2.40;99.90;;;;;;5077303;28;20196;-70
2022/01/16 08:43:47;;;;;;;12.20;9.07;;;2.10;99.90;;;;;;5077515;28;20196;-71
2022/01/16 08:46:15;;;;;;;11.75;8.55;;;1.90;99.90;;;;;;5076253;28;20315;-70
2022/01/16 08:48:42;;;;;;;10.30;7.85;;;1.60;99.90;;;;;;5076579;28;20214;-70
2022/01/16 08:51:10;;;;;;;9.27;7.50;;;1.50;99.90;;;;;;5076246;28;20199;-70
2022/01/16 08:53:38;;;;;;;10.25;7.40;;;1.50;99.90;;;;;;5076178;28;20219;-70
2022/01/16 08:56:05;;;;;;;10.65;7.28;;;1.40;99.90;;;;;;5076033;28;20256;-70
2022/01/16 08:58:32;;;;;;;11.05;7.43;;;1.30;99.90;;;;;;5076177;28;20662;-70
2022/01/16 09:00:59;;;;;;;9.52;8.05;;;1.20;99.90;;;;;;5075902;28;20235;-70
2022/01/16 09:03:26;;;;;;;9.77;7.53;;;1.20;99.90;;;;;;5074889;28;20234;-70
2022/01/16 09:05:54;;;;;;;11.15;8.52;;;1.20;99.90;;;;;;5075750;28;20226;-69
2022/01/16 09:08:22;;;;;;;13.43;10.27;;;1.20;99.90;;;;;;5075647;28;20817;-70
2022/01/16 09:10:49;;;;;;;13.32;9.00;;;1.20;99.90;;;;;;5075650;28;20210;-69
2022/01/16 09:13:17;;;;;;;12.52;9.13;;;1.20;99.90;;;;;;5075917;28;20219;-70
2022/01/16 09:15:44;;;;;;;11.80;8.70;;;1.20;99.90;;;;;;5075579;28;20248;-70
2022/01/16 09:18:12;;;;;;;12.20;8.68;;;1.30;99.90;;;;;;5075709;28;20211;-72
2022/01/16 09:20:39;;;;;;;8.50;6.82;;;1.30;99.90;;;;;;5075515;28;20700;-71
2022/01/16 09:23:06;;;;;;;10.27;8.32;;;1.40;99.90;;;;;;5075524;28;20203;-72
2022/01/16 09:25:34;;;;;;;10.40;7.63;;;1.50;99.90;;;;;;5075587;28;20196;-71
2022/01/16 09:28:01;;;;;;;11.27;8.05;;;1.50;99.90;;;;;;5075187;28;20210;-73
2022/01/16 09:30:29;;;;;;;11.43;7.80;;;1.60;99.90;;;;;;5075207;28;20199;-73
2022/01/16 09:32:57;;;;;;;8.57;7.65;;;1.60;99.90;;;;;;5074994;28;20212;-73
2022/01/16 09:35:24;;;;;;;12.02;8.35;;;1.70;99.90;;;;;;5074777;28;20704;-74
2022/01/16 09:37:52;;;;;;;9.00;7.88;;;1.80;99.90;;;;;;5075688;28;20206;-72
2022/01/16 09:40:21;;;;;;;10.07;7.28;;;1.90;99.90;;;;;;5075174;28;20284;-72
2022/01/16 09:42:49;;;;;;;11.10;8.10;;;1.80;99.90;;;;;;5075281;28;20200;-73
2022/01/16 09:45:17;;;;;;;9.43;7.93;;;1.80;99.90;;;;;;5075265;28;20291;-74
2022/01/16 09:47:46;;;;;;;9.95;7.93;;;1.90;99.90;;;;;;5075090;28;20206;-74
2022/01/16 09:50:17;;;;;;;10.00;8.48;;;1.90;99.90;;;;;;5075079;28;20238;-73
2022/01/16 09:52:45;;;;;;;12.80;9.07;;;1.90;99.90;;;;;;5075049;28;20215;-73
2022/01/16 09:55:13;;;;;;;12.30;8.40;;;1.90;99.90;;;;;;5075072;28;20207;-74
2022/01/16 09:57:41;;;;;;;12.70;8.95;;;2.00;99.90;;;;;;5074943;28;20224;-73
2022/01/16 10:00:13;;;;;;;10.88;8.82;;;2.00;99.90;;;;;;5074860;28;20286;-73
2022/01/16 10:02:40;;;;;;;11.80;8.95;;;2.10;99.90;;;;;;5074820;28;20184;-73
2022/01/16 10:05:23;;;;;;;11.27;8.43;;;2.10;99.90;;;;;;5074701;28;20200;-72
2022/01/16 10:07:51;;;;;;;11.65;8.52;;;2.20;99.90;;;;;;5074821;28;20192;-75
2022/01/16 10:10:18;;;;;;;12.48;8.35;;;2.30;99.90;;;;;;5074516;28;20663;-75
2022/01/16 10:12:49;;;;;;;10.98;8.68;;;2.40;99.90;;;;;;5074499;28;20204;-75
2022/01/16 10:15:20;;;;;;;13.10;9.18;;;2.50;99.90;;;;;;5074749;28;20192;-76
2022/01/16 10:17:48;;;;;;;11.32;8.35;;;2.50;99.90;;;;;;5074563;28;20207;-75
2022/01/16 10:20:16;;;;;;;9.43;8.07;;;2.60;99.90;;;;;;5074512;28;20298;-75
2022/01/16 10:22:46;;;;;;;10.55;8.23;;;2.60;99.90;;;;;;5074692;28;20191;-75
2022/01/16 10:25:14;;;;;;;10.43;8.27;;;2.50;99.90;;;;;;5074741;28;20206;-75
2022/01/16 10:27:43;;;;;;;12.95;8.68;;;2.50;99.90;;;;;;5074669;28;20224;-75
2022/01/16 10:30:14;;;;;;;15.00;10.32;;;2.40;99.90;;;;;;5074613;28;20202;-75
2022/01/16 10:32:44;;;;;;;13.40;9.02;;;2.40;99.90;;;;;;5074392;28;20195;-73
2022/01/16 10:35:14;;;;;;;16.13;10.68;;;2.40;99.90;;;;;;5074664;28;20278;-73
2022/01/16 10:37:44;;;;;;;14.30;10.52;;;2.40;99.90;;;;;;5074359;28;20220;-73
2022/01/16 10:40:15;;;;;;;13.65;9.68;;;2.50;99.90;;;;;;5074754;28;20184;-73
2022/01/16 10:42:48;;;;;;;11.25;8.73;;;2.50;99.90;;;;;;5074396;28;20319;-72
2022/01/16 10:45:17;;;;;;;14.15;9.48;;;2.60;99.90;;;;;;5074799;28;20279;-72
2022/01/16 10:47:47;;;;;;;14.40;9.57;;;2.60;99.90;;;;;;5074159;28;20200;-73
2022/01/16 10:50:19;;;;;;;13.02;9.32;;;2.70;99.90;;;;;;5074301;28;20550;-73
2022/01/16 10:52:58;;;;;;;10.60;7.90;;;2.70;99.90;;;;;;5074203;28;20199;-73
2022/01/16 10:55:34;;;;;;;10.82;8.60;;;2.70;99.90;;;;;;5074134;28;20216;-72
2022/01/16 10:58:06;;;;;;;9.82;7.82;;;2.80;99.90;;;;;;5073969;28;20191;-72
2022/01/16 11:00:33;;;;;;;8.25;7.40;;;2.80;99.90;;;;;;5073731;28;20609;-72
2022/01/16 11:03:03;;;;;;;10.02;7.90;;;2.90;99.90;;;;;;5073395;28;20552;-72
2022/01/16 11:05:35;;;;;;;8.15;7.18;;;2.90;99.90;;;;;;5073583;28;20184;-73
2022/01/16 11:08:03;;;;;;;9.25;6.40;;;2.90;99.90;;;;;;5073790;28;20271;-73
2022/01/16 11:10:32;;;;;;;9.68;6.22;;;3.00;99.90;;;;;;5073649;28;20206;-74
2022/01/16 11:13:01;;;;;;;9.95;7.10;;;3.00;99.90;;;;;;5074132;28;20402;-71
2022/01/16 11:15:30;;;;;;;6.57;5.88;;;3.00;99.90;;;;;;5073565;28;20204;-74
2022/01/16 11:17:57;;;;;;;6.80;5.45;;;3.00;99.90;;;;;;5073301;28;20226;-75
2022/01/16 11:20:33;;;;;;;7.72;5.82;;;3.00;99.90;;;;;;5073648;28;20204;-73
2022/01/16 11:25:43;;;;;;;6.15;5.32;;;3.00;99.90;;;;;;5071982;28;20253;-73
2022/01/16 11:28:12;;;;;;;6.55;5.78;;;2.90;99.90;;;;;;5080019;28;20206;-73
2022/01/16 11:30:42;;;;;;;7.22;5.40;;;2.90;99.90;;;;;;5080365;28;20203;-73
2022/01/16 11:33:09;;;;;;;6.85;5.28;;;2.90;99.90;;;;;;5080134;28;20208;-73
2022/01/16 11:35:43;;;;;;;5.30;4.60;;;3.00;99.90;;;;;;5080447;28;20287;-73
2022/01/16 11:38:12;;;;;;;8.32;5.50;;;3.00;99.90;;;;;;5080906;28;20188;-73
2022/01/16 11:40:45;;;;;;;5.20;4.65;;;3.10;99.90;;;;;;5081499;28;20199;-73
2022/01/16 11:43:17;;;;;;;5.25;4.75;;;3.10;99.90;;;;;;5080338;28;20183;-74
2022/01/16 11:45:56;;;;;;;5.53;4.90;;;3.10;99.90;;;;;;5080271;28;20219;-74
2022/01/16 11:48:37;;;;;;;5.53;4.63;;;3.20;99.90;;;;;;5079897;28;20291;-73
2022/01/16 11:51:06;;;;;;;6.43;5.35;;;3.20;99.90;;;;;;5080073;28;20287;-73
2022/01/16 11:54:08;;;;;;;6.03;5.50;;;3.30;99.90;;;;;;5079778;28;20219;-73
2022/01/16 11:56:52;;;;;;;5.85;4.80;;;3.30;99.90;;;;;;5079749;28;20284;-72
2022/01/16 11:59:22;;;;;;;5.43;4.90;;;3.40;99.90;;;;;;5079887;28;20290;-72
2022/01/16 12:01:51;;;;;;;6.85;5.00;;;3.40;99.90;;;;;;5080898;28;20199;-72
2022/01/16 12:04:48;;;;;;;4.90;4.18;;;3.50;99.90;;;;;;5079714;28;20286;-72
2022/01/16 12:07:48;;;;;;;5.60;4.68;;;3.50;99.90;;;;;;5034076;28;20789;-73
2022/01/16 12:10:35;;;;;;;5.32;4.82;;;3.50;99.90;;;;;;5079540;28;20635;-72
2022/01/16 12:13:02;;;;;;;4.93;4.10;;;3.60;99.90;;;;;;5079632;28;20739;-73
2022/01/16 12:15:32;;;;;;;4.18;3.78;;;3.60;99.90;;;;;;5079779;28;20225;-73
2022/01/16 12:17:59;;;;;;;5.00;4.07;;;3.60;99.90;;;;;;5079411;28;20214;-72
2022/01/16 12:20:30;;;;;;;4.63;4.18;;;3.60;99.90;;;;;;5079824;28;20737;-73
2022/01/16 12:23:03;;;;;;;5.40;4.88;;;3.60;99.90;;;;;;5080611;28;20628;-69
2022/01/16 12:25:33;;;;;;;5.22;4.60;;;3.60;99.90;;;;;;5080009;28;20184;-72
2022/01/16 12:28:01;;;;;;;7.50;5.13;;;3.60;99.90;;;;;;5082279;28;20272;-72
2022/01/16 12:30:41;;;;;;;5.68;5.18;;;3.60;99.90;;;;;;5080236;28;20203;-72
2022/01/16 12:33:11;;;;;;;6.45;5.32;;;3.60;99.90;;;;;;5079456;28;20238;-71
2022/01/16 12:36:13;;;;;;;4.85;4.35;;;3.70;99.90;;;;;;5079191;28;20220;-71
2022/01/16 12:39:11;;;;;;;6.07;4.88;;;3.70;99.90;;;;;;5077031;28;20650;-71
2022/01/16 12:41:44;;;;;;;4.95;4.53;;;3.70;99.90;;;;;;5070563;28;20207;-70
2022/01/16 12:44:13;;;;;;;4.63;4.13;;;3.70;99.90;;;;;;5076349;28;20184;-70
2022/01/16 12:46:44;;;;;;;4.25;3.95;;;3.70;99.90;;;;;;5078699;28;20303;-69
2022/01/16 12:49:13;;;;;;;5.53;4.60;;;3.70;99.90;;;;;;5076796;28;20188;-69
2022/01/16 12:51:44;;;;;;;5.45;4.28;;;3.70;99.90;;;;;;5077328;28;20288;-69
2022/01/16 12:54:13;;;;;;;5.20;4.43;;;3.70;99.90;;;;;;5078532;28;20211;-70
2022/01/16 12:56:46;;;;;;;4.72;4.32;;;3.70;99.90;;;;;;5086110;28;20254;-67
2022/01/16 12:59:19;;;;;;;4.47;4.07;;;3.70;99.90;;;;;;5264018;22;20228;-68
2022/01/16 13:01:49;;;;;;;5.05;4.55;;;3.70;99.90;;;;;;5083091;28;20604;-70
2022/01/16 13:04:26;;;;;;;3.67;3.47;;;3.70;99.90;;;;;;5081308;28;20204;-69
2022/01/16 13:06:56;;;;;;;4.07;3.72;;;3.60;99.90;;;;;;5088676;28;20228;-69
2022/01/16 13:09:26;;;;;;;4.22;3.80;;;3.60;99.90;;;;;;5077874;28;20204;-70
2022/01/16 13:11:55;;;;;;;4.13;3.72;;;3.60;99.90;;;;;;5077081;28;20236;-67
2022/01/16 13:14:25;;;;;;;3.65;3.35;;;3.60;99.90;;;;;;5075740;28;20315;-70
2022/01/16 13:16:54;;;;;;;3.80;3.38;;;3.50;99.90;;;;;;5075437;28;20315;-71
2022/01/16 13:19:24;;;;;;;3.35;3.13;;;3.40;99.90;;;;;;5075309;28;20206;-71
2022/01/16 13:22:02;;;;;;;3.67;3.38;;;3.40;99.90;;;;;;5075103;28;20663;-71
2022/01/16 13:24:34;;;;;;;3.70;3.00;;;3.30;99.90;;;;;;5075192;28;20176;-71
2022/01/16 13:27:03;;;;;;;3.63;3.33;;;3.30;99.90;;;;;;5075346;28;20251;-70
2022/01/16 13:29:30;;;;;;;3.65;3.35;;;3.20;99.90;;;;;;5075276;28;20290;-70
2022/01/16 13:31:58;;;;;;;3.40;3.15;;;3.20;99.90;;;;;;5075361;28;20245;-70
2022/01/16 13:34:43;;;;;;;3.92;3.63;;;3.10;99.90;;;;;;5075221;28;20216;-70
2022/01/16 13:37:14;;;;;;;3.92;3.53;;;3.00;99.90;;;;;;5074819;28;20590;-71
2022/01/16 13:39:48;;;;;;;4.82;3.78;;;2.90;99.90;;;;;;5075734;28;20188;-71
2022/01/16 13:42:28;;;;;;;3.33;3.03;;;2.80;99.90;;;;;;5074884;28;20659;-71
2022/01/16 13:45:18;;;;;;;3.20;3.00;;;2.80;99.90;;;;;;5075235;28;20185;-71
2022/01/16 13:47:58;;;;;;;4.38;3.00;;;2.80;99.90;;;;;;5099509;22;20223;-67
2022/01/16 13:50:26;;;;;;;3.67;3.38;;;2.80;99.90;;;;;;5074381;28;20191;-67
2022/01/16 13:52:55;;;;;;;4.15;3.83;;;2.80;99.90;;;;;;5074848;28;20239;-67
2022/01/16 13:55:24;;;;;;;5.00;4.28;;;2.70;99.90;;;;;;5074827;28;20226;-67
2022/01/16 13:57:52;;;;;;;6.93;5.55;;;2.70;99.90;;;;;;5074578;28;20311;-67
2022/01/16 14:00:21;;;;;;;6.00;5.25;;;2.80;99.90;;;;;;5074264;28;20663;-67
2022/01/16 14:02:48;;;;;;;7.63;4.97;;;2.80;99.90;;;;;;5074399;28;20204;-67
2022/01/16 14:05:25;;;;;;;5.40;4.88;;;2.80;99.90;;;;;;5074821;28;20192;-68
2022/01/16 14:07:52;;;;;;;5.43;4.93;;;2.80;99.90;;;;;;5074435;28;20220;-69
2022/01/16 14:10:39;;;;;;;5.10;4.60;;;2.80;99.90;;;;;;5074536;28;20211;-69
2022/01/16 14:13:10;;;;;;;5.55;4.95;;;2.80;99.90;;;;;;5074176;28;20235;-69
2022/01/16 14:15:37;;;;;;;4.78;4.38;;;2.80;99.90;;;;;;5074089;28;20203;-69
2022/01/16 14:18:08;;;;;;;6.47;5.13;;;2.70;99.90;;;;;;5073865;28;20224;-69
2022/01/16 14:20:53;;;;;;;6.15;5.30;;;2.70;99.90;;;;;;5074269;28;20184;-68
2022/01/16 14:23:20;;;;;;;5.70;5.05;;;2.70;99.90;;;;;;5074361;28;20196;-68
2022/01/16 14:25:48;;;;;;;6.30;5.00;;;2.70;99.90;;;;;;5074221;28;20619;-68
2022/01/16 14:28:15;;;;;;;5.28;4.68;;;2.70;99.90;;;;;;5074038;28;20327;-68
2022/01/16 14:30:41;;;;;;;6.93;5.13;;;2.70;99.90;;;;;;5073841;28;20650;-68
2022/01/16 14:33:08;;;;;;;10.18;7.25;;;2.70;99.90;;;;;;5074057;28;20204;-68
2022/01/16 14:35:35;;;;;;;10.05;7.63;;;2.60;99.90;;;;;;5073948;28;20219;-68
2022/01/16 14:38:02;;;;;;;12.95;8.50;;;2.60;99.90;;;;;;5073946;28;20230;-68
2022/01/16 14:40:29;;;;;;;12.95;8.65;;;2.60;99.90;;;;;;5074393;28;20196;-68
2022/01/16 14:43:04;;;;;;;13.35;9.15;;;2.60;99.90;;;;;;5073683;28;20681;-68
2022/01/16 14:45:32;;;;;;;13.10;8.48;;;2.60;99.90;;;;;;5073943;28;20184;-68
2022/01/16 14:47:59;;;;;;;11.98;8.20;;;2.50;99.90;;;;;;5073479;28;20725;-68
2022/01/16 14:50:25;;;;;;;13.38;8.90;;;2.50;99.90;;;;;;5073715;28;20200;-68
2022/01/16 14:52:52;;;;;;;11.85;8.23;;;2.40;99.90;;;;;;5073552;28;20569;-68
2022/01/16 14:55:19;;;;;;;10.38;7.88;;;2.40;99.90;;;;;;5073389;28;20690;-68
2022/01/16 14:57:47;;;;;;;13.27;8.77;;;2.30;99.90;;;;;;5073365;28;20220;-68
2022/01/16 15:00:16;;;;;;;13.25;9.05;;;2.30;99.90;;;;;;5073474;28;20200;-68
2022/01/16 15:02:43;;;;;;;14.52;9.73;;;2.20;99.90;;;;;;5072937;28;20279;-68
2022/01/16 15:05:11;;;;;;;12.30;8.75;;;2.10;99.90;;;;;;5073619;28;20195;-68
2022/01/16 15:07:40;;;;;;;13.15;9.32;;;2.00;99.90;;;;;;5073278;28;20725;-68
2022/01/16 15:10:09;;;;;;;13.07;8.43;;;1.90;99.90;;;;;;5073192;28;20227;-68
2022/01/16 15:12:36;;;;;;;12.82;8.15;;;1.80;99.90;;;;;;5073280;28;20200;-68
2022/01/16 15:15:06;;;;;;;11.95;8.20;;;1.80;99.90;;;;;;5073357;28;20223;-68
2022/01/16 15:17:41;;;;;;;8.82;7.03;;;1.70;99.90;;;;;;5073460;28;20235;-68
2022/01/16 15:20:16;;;;;;;10.00;6.65;;;1.70;99.90;;;;;;5072790;28;20192;-68
2022/01/16 15:22:44;;;;;;;9.35;7.03;;;1.60;99.90;;;;;;5072880;28;20642;-68
2022/01/16 15:25:12;;;;;;;9.00;6.65;;;1.50;99.90;;;;;;5073090;28;20566;-68
2022/01/16 15:27:39;;;;;;;12.35;8.23;;;1.50;99.90;;;;;;5073807;28;20626;-68
2022/01/16 15:30:12;;;;;;;11.25;7.40;;;1.50;99.90;;;;;;5076346;28;20717;-68
2022/01/16 15:32:41;;;;;;;10.57;7.15;;;1.40;99.90;;;;;;5077695;28;20572;-68
2022/01/16 15:35:09;;;;;;;11.05;7.25;;;1.40;99.90;;;;;;5073888;28;20259;-68
2022/01/16 15:37:36;;;;;;;11.43;7.63;;;1.30;99.90;;;;;;5072848;28;20517;-68
2022/01/16 15:40:04;;;;;;;9.52;7.13;;;1.30;99.90;;;;;;5073580;28;20283;-68
2022/01/16 15:42:31;;;;;;;6.72;5.85;;;1.20;99.90;;;;;;5073344;28;20206;-68
2022/01/16 15:44:58;;;;;;;7.13;5.60;;;1.20;99.90;;;;;;5073322;28;20286;-68
2022/01/16 15:47:25;;;;;;;7.93;6.20;;;1.10;99.90;;;;;;5072917;28;20231;-68
2022/01/16 15:49:53;;;;;;;8.77;6.15;;;1.00;99.90;;;;;;5073152;28;20202;-68
2022/01/16 15:52:21;;;;;;;6.72;5.50;;;1.00;99.90;;;;;;5073255;28;20207;-68
2022/01/16 15:54:49;;;;;;;7.03;5.35;;;0.90;99.90;;;;;;5073179;28;20234;-68
2022/01/16 15:57:16;;;;;;;6.03;5.03;;;0.80;99.90;;;;;;5073053;28;20229;-68
2022/01/16 15:59:43;;;;;;;4.82;4.35;;;0.80;99.90;;;;;;5073430;28;20200;-68
2022/01/16 16:02:10;;;;;;;6.50;4.90;;;0.80;99.90;;;;;;5072912;28;20667;-68
2022/01/16 16:04:37;;;;;;;4.68;4.18;;;0.80;99.90;;;;;;5073075;28;20282;-69
2022/01/16 16:07:06;;;;;;;9.55;6.15;;;0.70;99.90;;;;;;5072963;28;20287;-68
2022/01/16 16:09:33;;;;;;;8.95;6.57;;;0.70;99.90;;;;;;5074476;28;20247;-67
2022/01/16 16:12:05;;;;;;;8.93;6.93;;;0.70;99.90;;;;;;5076380;28;20200;-67
2022/01/16 16:14:33;;;;;;;8.82;6.80;;;0.70;99.90;;;;;;5079585;28;20702;-67
2022/01/16 16:17:02;;;;;;;8.25;5.97;;;0.80;99.90;;;;;;5080340;28;20196;-68
2022/01/16 16:19:29;;;;;;;7.82;6.18;;;0.80;99.90;;;;;;5080375;28;20291;-67
2022/01/16 16:21:57;;;;;;;6.78;5.55;;;0.80;99.90;;;;;;5080100;28;20287;-67
2022/01/16 16:24:25;;;;;;;5.80;4.97;;;0.80;99.90;;;;;;5078392;28;20204;-67
2022/01/16 16:26:52;;;;;;;6.00;5.13;;;0.80;99.90;;;;;;5076622;28;20207;-68
2022/01/16 16:29:19;;;;;;;5.97;5.20;;;0.80;99.90;;;;;;5076176;28;20635;-68
2022/01/16 16:31:46;;;;;;;6.03;4.90;;;0.80;99.90;;;;;;5076153;28;20642;-68
2022/01/16 16:34:13;;;;;;;5.18;4.15;;;0.80;99.90;;;;;;5076035;28;20287;-68
2022/01/16 16:36:41;;;;;;;8.45;5.05;;;0.70;99.90;;;;;;5075917;28;20679;-68
2022/01/16 16:39:08;;;;;;;6.63;4.85;;;0.70;99.90;;;;;;5076633;28;20219;-68
2022/01/16 16:41:42;;;;;;;5.32;4.70;;;0.70;99.90;;;;;;5076318;28;20257;-68
2022/01/16 16:44:08;;;;;;;5.85;4.70;;;0.70;99.90;;;;;;5076234;28;20188;-67
2022/01/16 16:46:36;;;;;;;5.53;5.03;;;0.80;99.90;;;;;;5076227;28;20287;-68
2022/01/16 16:49:06;;;;;;;5.20;4.70;;;0.80;99.90;;;;;;5075816;28;20231;-68
2022/01/16 16:51:32;;;;;;;4.95;4.38;;;0.80;99.90;;;;;;5076246;28;20208;-67
2022/01/16 16:54:00;;;;;;;4.93;4.43;;;0.80;99.90;;;;;;5076106;28;20211;-67
2022/01/16 16:56:28;;;;;;;4.50;4.10;;;0.70;99.90;;;;;;5075669;28;20713;-68
2022/01/16 16:58:56;;;;;;;4.72;4.32;;;0.70;99.90;;;;;;5075903;28;20228;-67
2022/01/16 17:01:23;;;;;;;4.38;3.95;;;0.60;99.90;;;;;;5075687;28;20742;-67
2022/01/16 17:03:50;;;;;;;4.85;4.35;;;0.60;99.90;;;;;;5075827;28;20200;-67
2022/01/16 17:06:17;;;;;;;5.65;4.78;;;0.50;99.90;;;;;;5076398;28;20196;-67
2022/01/16 17:08:44;;;;;;;5.22;3.92;;;0.50;99.90;;;;;;5075504;28;20220;-67
2022/01/16 17:11:18;;;;;;;4.65;4.25;;;0.50;99.90;;;;;;5075685;28;20207;-67
2022/01/16 17:13:45;;;;;;;6.55;4.45;;;0.40;99.90;;;;;;5075478;28;20181;-67
2022/01/16 17:16:14;;;;;;;5.15;4.65;;;0.40;99.90;;;;;;5075453;28;20227;-68
2022/01/16 17:18:41;;;;;;;4.53;4.13;;;0.40;99.90;;;;;;5075602;28;20307;-68
2022/01/16 17:21:08;;;;;;;4.68;4.25;;;0.40;99.90;;;;;;5075861;28;20689;-68
2022/01/16 17:23:35;;;;;;;3.90;3.60;;;0.40;99.90;;;;;;5074725;28;20734;-68
2022/01/16 17:26:02;;;;;;;3.80;3.50;;;0.40;99.90;;;;;;5074935;28;20192;-68
2022/01/16 17:28:29;;;;;;;5.18;4.35;;;0.40;99.90;;;;;;5074922;28;20669;-68
2022/01/16 17:30:57;;;;;;;4.75;4.20;;;0.30;99.90;;;;;;5075271;28;20281;-68
2022/01/16 17:33:26;;;;;;;4.78;3.80;;;0.30;99.90;;;;;;5074975;28;20254;-68
2022/01/16 17:35:53;;;;;;;4.50;4.10;;;0.30;99.90;;;;;;5074850;28;20251;-68
2022/01/16 17:38:20;;;;;;;4.20;3.80;;;0.30;99.90;;;;;;5075098;28;20310;-68
2022/01/16 17:40:47;;;;;;;3.45;3.25;;;0.30;99.90;;;;;;5074896;28;20214;-68
2022/01/16 17:43:15;;;;;;;3.92;3.63;;;0.30;99.90;;;;;;5075211;28;20235;-68
2022/01/16 17:45:42;;;;;;;4.32;3.67;;;0.40;99.90;;;;;;5075117;28;20270;-68
2022/01/16 17:48:10;;;;;;;3.47;3.17;;;0.40;99.90;;;;;;5074730;28;20224;-68
2022/01/16 17:50:38;;;;;;;3.78;3.47;;;0.40;99.90;;;;;;5074808;28;20292;-68
2022/01/16 17:53:05;;;;;;;4.10;3.45;;;0.40;99.90;;;;;;5074980;28;20200;-68
2022/01/16 17:55:32;;;;;;;3.22;3.03;;;0.40;99.90;;;;;;5074891;28;20258;-68
2022/01/16 17:57:58;;;;;;;3.47;3.22;;;0.40;99.90;;;;;;5074965;28;20252;-68
2022/01/16 18:00:25;;;;;;;3.47;3.17;;;0.50;99.90;;;;;;5074621;28;20210;-68
2022/01/16 18:02:52;;;;;;;2.97;2.85;;;0.40;99.90;;;;;;5074922;28;20223;-68
2022/01/16 18:05:19;;;;;;;3.58;3.28;;;0.40;99.90;;;;;;5075149;28;20223;-67
2022/01/16 18:07:47;;;;;;;4.28;3.35;;;0.40;99.90;;;;;;5074658;28;20220;-66
2022/01/16 18:10:18;;;;;;;3.80;3.50;;;0.40;99.90;;;;;;5074649;28;20685;-66
2022/01/16 18:12:45;;;;;;;3.45;3.15;;;0.40;99.90;;;;;;5074444;28;20181;-67
2022/01/16 18:15:12;;;;;;;3.75;3.38;;;0.40;99.90;;;;;;5074463;28;20464;-66
2022/01/16 18:17:39;;;;;;;3.28;3.00;;;0.50;99.90;;;;;;5074511;28;20216;-66
2022/01/16 18:20:07;;;;;;;3.60;3.30;;;0.50;99.90;;;;;;5074467;28;20206;-67
2022/01/16 18:22:34;;;;;;;4.28;3.75;;;0.50;99.90;;;;;;5074177;28;20200;-67
2022/01/16 18:25:03;;;;;;;3.40;3.20;;;0.50;99.90;;;;;;5074441;28;20208;-68
2022/01/16 18:27:30;;;;;;;3.67;3.42;;;0.50;99.90;;;;;;5074334;28;20411;-68
2022/01/16 18:29:57;;;;;;;3.35;3.15;;;0.50;99.90;;;;;;5074336;28;20291;-68
2022/01/16 18:32:25;;;;;;;3.53;3.22;;;0.40;99.90;;;;;;5074130;28;20209;-67
2022/01/16 18:34:52;;;;;;;2.92;2.70;;;0.50;99.90;;;;;;5074059;28;20231;-67
2022/01/16 18:37:19;;;;;;;3.03;2.80;;;0.40;99.90;;;;;;5073970;28;20305;-67
2022/01/16 18:39:46;;;;;;;2.60;2.45;;;0.40;99.90;;;;;;5074054;28;20291;-68
2022/01/16 18:42:14;;;;;;;2.97;2.88;;;0.40;99.90;;;;;;5073999;28;20226;-67
2022/01/16 18:44:41;;;;;;;3.00;2.80;;;0.30;99.90;;;;;;5074080;28;20232;-67
2022/01/16 18:47:09;;;;;;;2.97;2.78;;;0.30;99.90;;;;;;5073723;28;20302;-68
2022/01/16 18:49:36;;;;;;;3.33;3.03;;;0.30;99.90;;;;;;5073713;28;20246;-67
2022/01/16 18:52:03;;;;;;;2.85;2.63;;;0.20;99.90;;;;;;5073959;28;20291;-67
2022/01/16 18:54:31;;;;;;;3.90;3.53;;;0.20;99.90;;;;;;5073801;28;20235;-68
2022/01/16 18:56:57;;;;;;;3.70;3.40;;;0.20;99.90;;;;;;5073559;28;20226;-68
2022/01/16 18:59:27;;;;;;;3.15;2.95;;;0.20;99.90;;;;;;5073728;28;20226;-68
2022/01/16 19:01:54;;;;;;;3.03;2.85;;;0.10;99.90;;;;;;5073421;28;20242;-68
2022/01/16 19:04:21;;;;;;;3.20;3.00;;;0.10;99.90;;;;;;5073504;28;20206;-67
2022/01/16 19:06:48;;;;;;;3.05;2.85;;;0.10;99.90;;;;;;5073327;28;20537;-68
2022/01/16 19:09:15;;;;;;;3.38;3.00;;;0.10;99.90;;;;;;5073422;28;20242;-68
2022/01/16 19:11:42;;;;;;;2.70;2.60;;;0.20;99.90;;;;;;5073301;28;20246;-67
2022/01/16 19:14:11;;;;;;;3.25;3.05;;;0.20;99.90;;;;;;5073622;28;20200;-67
2022/01/16 19:16:40;;;;;;;3.30;3.00;;;0.20;99.90;;;;;;5073497;28;20230;-68
2022/01/16 19:19:08;;;;;;;3.13;2.88;;;0.30;99.90;;;;;;5073450;28;20231;-68
2022/01/16 19:21:36;;;;;;;3.38;3.05;;;0.30;99.90;;;;;;5073469;28;20196;-68